createdAt,value
2023-05-20T00:01:07.946Z,19.47
2023-05-20T00:03:36.145Z,19.57
2023-05-20T00:06:04.145Z,21.60
2023-05-20T00:08:32.164Z,17.47
2023-05-20T00:11:01.553Z,17.27
2023-05-20T00:13:29.601Z,18.37
2023-05-20T00:15:57.648Z,18.67
2023-05-20T00:18:25.658Z,17.73
2023-05-20T00:20:54.537Z,17.87
2023-05-20T00:23:22.482Z,17.40
2023-05-20T00:25:50.675Z,20.07
2023-05-20T00:28:21.215Z,19.17
2023-05-20T00:30:49.133Z,20.87
2023-05-20T00:33:17.194Z,19.70
2023-05-20T00:35:45.241Z,18.07
2023-05-20T00:38:13.190Z,17.80
2023-05-20T00:40:41.167Z,17.90
2023-05-20T00:43:09.139Z,16.80
2023-05-20T00:45:39.020Z,15.73
2023-05-20T00:48:08.491Z,18.60
2023-05-20T00:50:36.609Z,15.87
2023-05-20T00:53:05.131Z,15.80
2023-05-20T00:55:34.054Z,15.33
2023-05-20T00:58:02.230Z,17.07
2023-05-20T01:00:30.183Z,16.07
2023-05-20T01:03:00.022Z,16.53
2023-05-20T01:05:28.427Z,16.77
2023-05-20T01:07:56.707Z,15.93
2023-05-20T01:10:30.125Z,18.60
2023-05-20T01:13:03.050Z,18.73
2023-05-20T01:15:32.666Z,19.93
2023-05-20T01:18:06.287Z,14.93
2023-05-20T01:20:34.869Z,18.53
2023-05-20T01:23:04.549Z,21.13
2023-05-20T01:25:32.727Z,16.50
2023-05-20T01:28:00.934Z,16.77
2023-05-20T01:30:39.716Z,16.33
2023-05-20T01:33:12.049Z,16.20
2023-05-20T01:35:41.814Z,16.40
2023-05-20T01:38:11.379Z,19.27
2023-05-20T01:40:41.949Z,18.73
2023-05-20T01:43:10.889Z,21.53
2023-05-20T01:45:39.945Z,19.93
2023-05-20T01:48:07.985Z,17.13
2023-05-20T01:50:35.910Z,18.23
2023-05-20T01:53:03.959Z,19.50
2023-05-20T01:55:33.479Z,22.73
2023-05-20T01:58:01.760Z,23.20
2023-05-20T02:00:29.849Z,17.50
2023-05-20T02:02:57.941Z,18.63
2023-05-20T02:05:26.041Z,18.13
2023-05-20T02:07:53.997Z,18.93
2023-05-20T02:10:22.076Z,18.83
2023-05-20T02:12:51.415Z,19.03
2023-05-20T02:15:19.596Z,21.67
2023-05-20T02:17:49.548Z,21.63
2023-05-20T02:20:17.812Z,22.47
2023-05-20T02:22:45.821Z,22.07
2023-05-20T02:25:14.010Z,23.67
2023-05-20T02:27:42.096Z,21.67
2023-05-20T02:30:12.220Z,21.87
2023-05-20T02:32:40.225Z,21.90
2023-05-20T02:35:08.769Z,21.43
2023-05-20T02:37:39.052Z,21.60
2023-05-20T02:40:09.365Z,25.27
2023-05-20T02:42:37.407Z,22.83
2023-05-20T02:45:06.223Z,22.07
2023-05-20T02:47:35.654Z,22.30
2023-05-20T02:50:03.612Z,20.03
2023-05-20T02:52:31.590Z,23.77
2023-05-20T02:54:59.711Z,20.00
2023-05-20T02:57:28.492Z,22.90
2023-05-20T02:59:58.356Z,20.93
2023-05-20T03:02:26.294Z,19.80
2023-05-20T03:04:55.665Z,20.93
2023-05-20T03:07:23.715Z,33.07
2023-05-20T03:09:51.698Z,22.33
2023-05-20T03:12:20.036Z,26.40
2023-05-20T03:14:48.029Z,24.17
2023-05-20T03:17:16.212Z,21.27
2023-05-20T03:19:44.174Z,24.57
2023-05-20T03:22:13.582Z,22.33
2023-05-20T03:24:43.114Z,20.43
2023-05-20T03:27:11.520Z,20.33
2023-05-20T03:29:39.930Z,24.73
2023-05-20T03:32:10.144Z,23.60
2023-05-20T03:34:39.390Z,22.63
2023-05-20T03:37:07.459Z,23.43
2023-05-20T03:39:36.830Z,22.03
2023-05-20T03:42:04.993Z,23.40
2023-05-20T03:44:33.044Z,22.27
2023-05-20T03:47:01.067Z,18.73
2023-05-20T03:49:29.033Z,22.00
2023-05-20T03:51:57.018Z,20.10
2023-05-20T03:54:24.962Z,24.80
2023-05-20T03:56:54.917Z,22.53
2023-05-20T03:59:23.496Z,20.70
2023-05-20T04:01:51.537Z,15.17
2023-05-20T04:04:19.640Z,17.13
2023-05-20T04:06:47.729Z,16.93
2023-05-20T04:09:15.976Z,19.63
2023-05-20T04:11:43.909Z,15.43
2023-05-20T04:14:13.273Z,17.20
2023-05-20T04:16:41.340Z,22.00
2023-05-20T04:19:09.417Z,16.90
2023-05-20T04:21:37.565Z,19.70
2023-05-20T04:24:05.739Z,19.13
2023-05-20T04:26:35.481Z,19.80
2023-05-20T04:29:04.232Z,17.23
2023-05-20T04:31:33.639Z,18.13
2023-05-20T04:34:02.819Z,21.87
2023-05-20T04:36:32.538Z,17.27
2023-05-20T04:39:00.652Z,19.97
2023-05-20T04:41:28.727Z,21.10
2023-05-20T04:43:59.888Z,22.63
2023-05-20T04:46:29.255Z,19.30
2023-05-20T04:48:58.648Z,17.37
2023-05-20T04:51:26.667Z,16.77
2023-05-20T04:53:54.690Z,19.50
2023-05-20T04:56:22.710Z,17.53
2023-05-20T04:59:16.203Z,22.07
2023-05-20T05:01:44.261Z,21.37
2023-05-20T05:04:13.667Z,17.37
2023-05-20T05:06:41.870Z,18.30
2023-05-20T05:09:19.450Z,17.67
2023-05-20T05:32:24.476Z,21.20
2023-05-20T05:34:54.812Z,16.70
2023-05-20T05:37:22.778Z,16.90
2023-05-20T05:39:51.163Z,18.73
2023-05-20T05:42:19.219Z,21.92
2023-05-20T05:44:47.715Z,16.65
2023-05-20T05:47:16.002Z,26.17
2023-05-20T05:49:44.087Z,17.20
2023-05-20T05:52:14.310Z,19.92
2023-05-20T05:54:42.771Z,17.70
2023-05-20T05:57:12.150Z,14.80
2023-05-20T05:59:40.217Z,15.07
2023-05-20T06:02:10.051Z,17.52
2023-05-20T06:04:38.219Z,19.08
2023-05-20T06:07:06.803Z,16.92
2023-05-20T06:09:36.289Z,18.42
2023-05-20T06:12:07.270Z,18.92
2023-05-20T06:14:35.571Z,16.08
2023-05-20T06:17:16.070Z,17.20
2023-05-20T06:24:07.530Z,19.42
2023-05-20T06:26:38.154Z,17.45
2023-05-20T06:29:12.264Z,16.10
2023-05-20T06:31:40.998Z,17.73
2023-05-20T06:34:09.140Z,17.58
2023-05-20T06:36:37.931Z,14.15
2023-05-20T06:39:12.653Z,13.57
2023-05-20T06:41:50.507Z,14.18
2023-05-20T06:44:34.283Z,13.18
2023-05-20T07:00:41.852Z,10.00
2023-05-20T08:45:26.639Z,9.85
2023-05-20T09:04:17.777Z,8.45
2023-05-20T09:07:45.947Z,9.18
2023-05-20T09:10:16.862Z,8.27
2023-05-20T09:13:12.296Z,7.88
2023-05-20T09:15:40.956Z,10.18
2023-05-20T09:18:09.741Z,10.30
2023-05-20T09:29:21.970Z,8.43
2023-05-20T09:31:50.768Z,10.20
2023-05-20T10:13:41.169Z,11.73
2023-05-20T10:16:16.118Z,8.15
2023-05-20T10:18:56.701Z,7.60
2023-05-20T10:21:26.124Z,8.55
2023-05-20T10:32:00.217Z,7.53
2023-05-20T10:34:30.160Z,8.88
2023-05-20T10:37:01.825Z,7.15
2023-05-20T10:50:47.211Z,6.68
2023-05-20T11:00:44.772Z,7.38
2023-05-20T11:03:35.670Z,7.43
2023-05-20T11:06:29.961Z,7.70
2023-05-20T11:09:06.712Z,7.03
2023-05-20T11:11:34.917Z,7.55
2023-05-20T11:14:03.538Z,7.80
2023-05-20T11:16:31.799Z,9.02
2023-05-20T11:19:00.138Z,7.53
2023-05-20T11:21:29.759Z,8.95
2023-05-20T11:27:48.318Z,10.88
2023-05-20T11:30:32.107Z,7.65
2023-05-20T11:33:02.101Z,15.95
2023-05-20T11:35:32.331Z,7.82
2023-05-20T11:38:17.875Z,8.60
2023-05-20T11:41:17.051Z,7.88
2023-05-20T11:44:40.544Z,7.03
2023-05-20T11:47:27.795Z,7.15
2023-05-20T11:49:57.554Z,6.82
2023-05-20T11:56:17.639Z,7.50
2023-05-20T11:59:28.752Z,10.30
2023-05-20T12:01:56.966Z,9.18
2023-05-20T12:04:25.272Z,8.23
2023-05-20T12:07:10.454Z,10.10
2023-05-20T12:10:26.120Z,7.68
2023-05-20T12:12:55.848Z,7.32
2023-05-20T12:15:24.339Z,6.90
2023-05-20T12:17:53.767Z,7.53
2023-05-20T12:20:23.816Z,10.70
2023-05-20T12:22:53.254Z,8.13
2023-05-20T12:25:22.214Z,8.13
2023-05-20T12:27:50.705Z,6.85
2023-05-20T12:30:21.905Z,9.98
2023-05-20T12:32:52.312Z,7.10
2023-05-20T12:35:26.995Z,8.57
2023-05-20T12:37:55.094Z,7.40
2023-05-20T12:40:23.363Z,13.32
2023-05-20T12:42:51.367Z,5.07
2023-05-20T12:45:20.786Z,6.70
2023-05-20T12:47:49.559Z,4.22
2023-05-20T12:50:17.795Z,4.75
2023-05-20T12:52:45.798Z,5.72
2023-05-20T12:55:14.725Z,6.43
2023-05-20T12:57:43.134Z,4.90
2023-05-20T13:00:12.928Z,5.20
2023-05-20T13:02:43.520Z,5.03
2023-05-20T13:05:12.422Z,5.00
2023-05-20T13:07:40.605Z,5.22
2023-05-20T13:10:10.597Z,5.32
2023-05-20T13:12:38.958Z,4.53
2023-05-20T13:15:08.285Z,5.18
2023-05-20T13:17:36.270Z,5.57
2023-05-20T13:20:06.768Z,5.78
2023-05-20T13:22:34.956Z,8.05
2023-05-20T13:25:03.030Z,5.18
2023-05-20T13:27:31.143Z,5.82
2023-05-20T13:29:59.565Z,5.30
2023-05-20T13:32:28.576Z,5.60
2023-05-20T13:34:59.835Z,5.90
2023-05-20T13:37:30.124Z,5.60
2023-05-20T13:39:58.155Z,5.80
2023-05-20T13:42:26.242Z,7.30
2023-05-20T13:44:54.352Z,5.97
2023-05-20T13:47:22.372Z,5.80
2023-05-20T13:49:50.547Z,6.28
2023-05-20T13:52:18.618Z,6.25
2023-05-20T13:54:48.774Z,6.18
2023-05-20T13:57:17.024Z,5.75
2023-05-20T13:59:45.162Z,5.80
2023-05-20T14:02:13.239Z,6.03
2023-05-20T14:04:44.945Z,7.13
2023-05-20T14:07:13.028Z,6.22
2023-05-20T14:09:41.154Z,6.10
2023-05-20T14:12:10.908Z,6.05
2023-05-20T14:14:38.854Z,5.50
2023-05-20T14:17:06.894Z,7.10
2023-05-20T14:19:35.031Z,5.93
2023-05-20T14:22:03.457Z,7.63
2023-05-20T14:24:31.534Z,6.55
2023-05-20T14:26:59.610Z,6.25
2023-05-20T14:29:29.009Z,6.53
2023-05-20T14:31:57.136Z,6.05
2023-05-20T14:34:25.673Z,6.13
2023-05-20T14:36:53.771Z,6.65
2023-05-20T14:39:22.153Z,6.80
2023-05-20T14:41:50.606Z,6.47
2023-05-20T14:44:18.577Z,7.30
2023-05-20T14:46:48.639Z,6.60
2023-05-20T14:49:16.745Z,7.35
2023-05-20T14:51:45.152Z,8.82
2023-05-20T14:54:14.334Z,8.37
2023-05-20T14:56:42.376Z,8.00
2023-05-20T14:59:11.049Z,8.83
2023-05-20T15:01:39.125Z,7.77
2023-05-20T15:04:09.319Z,7.57
2023-05-20T15:06:37.622Z,7.50
2023-05-20T15:09:06.972Z,8.93
2023-05-20T15:11:34.970Z,10.10
2023-05-20T15:14:03.065Z,13.90
2023-05-20T15:16:31.150Z,22.97
2023-05-20T15:18:59.428Z,12.77
2023-05-20T15:21:28.794Z,11.27
2023-05-20T15:23:56.945Z,10.90
2023-05-20T15:26:26.212Z,9.10
2023-05-20T15:28:54.404Z,12.27
2023-05-20T15:31:22.549Z,11.03
2023-05-20T15:33:50.786Z,10.33
2023-05-20T15:36:19.059Z,11.02
2023-05-20T15:38:48.426Z,10.63
2023-05-20T15:41:16.444Z,9.30
2023-05-20T15:43:44.585Z,9.97
2023-05-20T15:46:12.970Z,8.63
2023-05-20T15:48:41.550Z,8.00
2023-05-20T15:51:09.712Z,7.50
2023-05-20T15:53:40.054Z,10.07
2023-05-20T15:56:12.675Z,9.60
2023-05-20T15:58:40.888Z,7.63
2023-05-20T16:01:09.221Z,8.47
2023-05-20T16:03:37.490Z,7.97
2023-05-20T16:06:08.157Z,8.20
2023-05-20T16:08:37.760Z,7.77
2023-05-20T16:11:06.601Z,8.53
2023-05-20T16:13:36.081Z,10.00
2023-05-20T16:16:04.243Z,9.33
2023-05-20T16:18:32.276Z,7.53
2023-05-20T16:23:51.069Z,7.13
2023-05-20T16:26:19.094Z,7.43
2023-05-20T16:28:48.583Z,8.77
2023-05-20T16:31:16.851Z,7.10
2023-05-20T16:33:45.192Z,7.17
2023-05-20T16:36:13.425Z,6.83
2023-05-20T16:38:41.404Z,7.53
2023-05-20T16:41:09.453Z,10.27
2023-05-20T16:43:37.681Z,9.03
2023-05-20T16:46:07.136Z,8.37
2023-05-20T16:48:35.145Z,8.77
2023-05-20T16:51:03.352Z,8.83
2023-05-20T16:53:31.464Z,7.07
2023-05-20T16:55:59.486Z,8.70
2023-05-20T16:58:27.474Z,10.93
2023-05-20T17:00:55.893Z,8.20
2023-05-20T17:03:25.430Z,10.00
2023-05-20T17:05:53.571Z,10.43
2023-05-20T17:08:21.867Z,9.57
2023-05-20T17:10:52.469Z,8.10
2023-05-20T17:13:22.243Z,7.57
2023-05-20T17:15:50.312Z,8.27
2023-05-20T17:18:18.271Z,6.70
2023-05-20T17:20:48.112Z,8.27
2023-05-20T17:23:16.210Z,7.70
2023-05-20T17:25:44.458Z,7.33
2023-05-20T17:28:12.594Z,7.43
2023-05-20T17:30:40.734Z,8.80
2023-05-20T17:33:08.863Z,6.77
2023-05-20T17:35:37.625Z,7.10
2023-05-20T17:38:06.924Z,7.17
2023-05-20T17:40:35.108Z,8.67
2023-05-20T17:43:03.258Z,8.30
2023-05-20T17:45:31.439Z,7.77
2023-05-20T17:47:59.528Z,8.67
2023-05-20T17:50:27.647Z,8.50
2023-05-20T17:52:55.713Z,11.90
2023-05-20T17:55:25.205Z,8.27
2023-05-20T17:57:53.237Z,11.07
2023-05-20T18:00:21.749Z,9.47
2023-05-20T18:02:50.055Z,13.10
2023-05-20T18:05:18.298Z,7.53
2023-05-20T18:07:46.449Z,9.63
2023-05-20T18:10:14.470Z,7.83
2023-05-20T18:12:45.350Z,9.43
2023-05-20T18:15:14.522Z,10.17
2023-05-20T18:17:42.621Z,10.13
2023-05-20T18:20:11.573Z,10.97
2023-05-20T18:22:42.757Z,9.60
2023-05-20T18:25:11.583Z,9.70
2023-05-20T18:27:39.570Z,12.17
2023-05-20T18:30:10.743Z,8.63
2023-05-20T18:32:39.400Z,7.60
2023-05-20T18:35:08.939Z,9.83
2023-05-20T18:37:37.063Z,11.40
2023-05-20T18:40:06.584Z,11.23
2023-05-20T18:42:34.557Z,10.90
2023-05-20T18:45:02.603Z,13.40
2023-05-20T18:47:32.377Z,11.77
2023-05-20T18:50:00.813Z,11.90
2023-05-20T18:52:29.091Z,11.93
2023-05-20T18:54:57.129Z,12.50
2023-05-20T18:57:25.101Z,10.53
2023-05-20T18:59:53.122Z,12.40
2023-05-20T19:02:21.396Z,10.40
2023-05-20T19:04:50.799Z,9.17
2023-05-20T19:07:18.878Z,9.10
2023-05-20T19:09:47.102Z,9.20
2023-05-20T19:12:15.086Z,11.27
2023-05-20T19:14:43.141Z,11.33
2023-05-20T19:17:11.322Z,9.17
2023-05-20T19:19:39.510Z,11.73
2023-05-20T19:22:08.954Z,8.83
2023-05-20T19:24:36.996Z,11.60
2023-05-20T19:27:05.203Z,9.13
2023-05-20T19:29:33.245Z,9.97
2023-05-20T19:32:01.632Z,8.93
2023-05-20T19:34:30.066Z,10.37
2023-05-20T19:36:58.071Z,8.90
2023-05-20T19:39:27.899Z,9.33
2023-05-20T19:41:55.930Z,9.93
2023-05-20T19:44:24.649Z,8.17
2023-05-20T19:46:53.100Z,7.60
2023-05-20T19:49:21.574Z,7.73
2023-05-20T19:51:49.638Z,8.03
2023-05-20T19:54:17.598Z,7.53
2023-05-20T19:56:47.099Z,9.00
2023-05-20T19:59:15.148Z,8.97
2023-05-20T20:01:43.280Z,8.53
2023-05-20T20:04:13.324Z,9.47
2023-05-20T20:06:41.341Z,9.90
2023-05-20T20:09:09.522Z,10.00
2023-05-20T20:11:37.613Z,9.93
2023-05-20T20:14:07.106Z,9.90
2023-05-20T20:16:36.079Z,10.13
2023-05-20T20:19:04.902Z,11.07
2023-05-20T20:21:32.892Z,12.37
2023-05-20T20:24:01.468Z,10.80
2023-05-20T20:26:31.505Z,9.13
2023-05-20T20:28:59.541Z,9.70
2023-05-20T20:31:29.132Z,9.03
2023-05-20T20:33:57.582Z,8.73
2023-05-20T20:36:25.900Z,8.80
2023-05-20T20:38:53.808Z,11.33
2023-05-20T20:41:21.851Z,9.87
2023-05-20T20:43:50.637Z,10.17
2023-05-20T20:46:18.759Z,10.60
2023-05-20T20:48:48.110Z,9.60
2023-05-20T20:51:16.906Z,12.30
2023-05-20T20:53:46.449Z,10.43
2023-05-20T20:56:14.449Z,9.80
2023-05-20T20:58:42.821Z,10.83
2023-05-20T21:01:11.090Z,10.40
2023-05-20T21:03:40.645Z,26.63
2023-05-20T21:06:10.189Z,12.80
2023-05-20T21:08:38.218Z,13.77
2023-05-20T21:11:06.536Z,12.40
2023-05-20T21:13:34.604Z,12.33
2023-05-20T21:16:02.824Z,17.97
2023-05-20T21:18:30.787Z,15.17
2023-05-20T21:20:58.902Z,12.33
2023-05-20T21:23:28.362Z,14.07
2023-05-20T21:25:56.426Z,12.33
2023-05-20T21:28:24.699Z,13.40
2023-05-20T21:30:52.905Z,13.20
2023-05-20T21:33:21.345Z,12.13
2023-05-20T21:35:49.434Z,11.87
2023-05-20T21:38:17.516Z,16.60
2023-05-20T21:40:46.942Z,12.83
2023-05-20T21:43:15.317Z,16.10
2023-05-20T21:45:43.399Z,14.80
2023-05-20T21:48:11.378Z,11.67
2023-05-20T21:50:39.373Z,15.63
2023-05-20T21:53:07.445Z,12.87
2023-05-20T21:55:35.798Z,12.23
2023-05-20T21:58:05.269Z,13.63
2023-05-20T22:00:33.914Z,13.47
2023-05-20T22:03:02.191Z,14.50
2023-05-20T22:05:30.603Z,12.83
2023-05-20T22:08:00.547Z,12.10
2023-05-20T22:10:28.521Z,12.40
2023-05-20T22:12:58.344Z,12.37
2023-05-20T22:15:28.645Z,22.23
2023-05-20T22:17:57.331Z,16.10
2023-05-20T22:20:25.789Z,14.67
2023-05-20T22:22:53.845Z,16.13
2023-05-20T22:25:21.925Z,12.70
2023-05-20T22:27:50.355Z,14.13
2023-05-20T22:30:18.860Z,12.93
2023-05-20T22:32:48.373Z,14.40
2023-05-20T22:35:16.938Z,14.17
2023-05-20T22:37:45.013Z,14.40
2023-05-20T22:40:13.675Z,14.30
2023-05-20T22:42:41.657Z,15.50
2023-05-20T22:45:11.143Z,14.00
2023-05-20T22:47:39.247Z,15.03
2023-05-20T22:50:10.217Z,14.80
2023-05-20T22:52:38.256Z,15.63
2023-05-20T22:55:07.001Z,21.00
2023-05-20T22:57:35.000Z,16.80
2023-05-20T23:00:04.673Z,18.70
2023-05-20T23:02:32.920Z,20.70
2023-05-20T23:05:01.369Z,16.00
2023-05-20T23:07:31.378Z,16.93
2023-05-20T23:09:59.325Z,15.30
2023-05-20T23:12:27.400Z,16.77
2023-05-20T23:14:55.445Z,15.87
2023-05-20T23:17:23.490Z,16.90
2023-05-20T23:19:51.529Z,17.57
2023-05-20T23:22:19.558Z,18.70
2023-05-20T23:24:48.917Z,16.43
2023-05-20T23:27:16.941Z,18.97
2023-05-20T23:29:45.020Z,19.77
2023-05-20T23:32:13.498Z,16.77
2023-05-20T23:34:41.703Z,18.83
2023-05-20T23:37:09.758Z,16.63
2023-05-20T23:39:37.782Z,16.97
2023-05-20T23:42:07.268Z,16.13
2023-05-20T23:44:35.171Z,16.37
2023-05-20T23:47:03.887Z,20.43
2023-05-20T23:49:32.132Z,17.83
2023-05-20T23:52:00.134Z,20.40
2023-05-20T23:54:28.186Z,18.00
2023-05-20T23:56:56.491Z,15.47
2023-05-20T23:59:25.856Z,16.67
